createdAt,value
2022-08-03T00:01:38.333Z,100.00
2022-08-03T00:04:06.176Z,100.00
2022-08-03T00:06:36.918Z,99.79
2022-08-03T00:09:05.852Z,100.00
2022-08-03T00:11:33.281Z,100.00
2022-08-03T00:14:00.785Z,99.63
2022-08-03T00:16:28.402Z,99.42
2022-08-03T00:18:55.794Z,99.04
2022-08-03T00:21:23.084Z,98.16
2022-08-03T00:23:52.429Z,97.41
2022-08-03T00:26:21.469Z,96.85
2022-08-03T00:28:49.264Z,96.08
2022-08-03T00:31:16.953Z,96.09
2022-08-03T00:33:58.822Z,96.97
2022-08-03T00:36:30.813Z,96.49
2022-08-03T00:38:58.158Z,95.48
2022-08-03T00:41:25.545Z,95.27
2022-08-03T00:43:53.032Z,94.76
2022-08-03T00:46:22.475Z,94.33
2022-08-03T00:48:51.040Z,93.95
2022-08-03T00:51:19.988Z,93.72
2022-08-03T00:53:47.548Z,93.08
2022-08-03T00:56:16.117Z,92.52
2022-08-03T00:58:47.366Z,92.24
2022-08-03T01:01:15.673Z,92.27
2022-08-03T01:03:42.992Z,92.40
2022-08-03T01:06:18.516Z,91.12
2022-08-03T01:09:11.938Z,90.95
2022-08-03T01:12:01.115Z,90.63
2022-08-03T01:14:42.262Z,90.21
2022-08-03T01:17:16.644Z,90.20
2022-08-03T01:19:50.857Z,89.53
2022-08-03T01:22:37.242Z,89.23
2022-08-03T01:25:33.664Z,88.98
2022-08-03T01:28:34.637Z,88.72
2022-08-03T01:31:05.863Z,88.43
2022-08-03T01:33:39.396Z,88.15
2022-08-03T01:36:32.320Z,87.98
2022-08-03T01:39:09.365Z,88.06
2022-08-03T01:41:47.914Z,87.58
2022-08-03T01:44:29.760Z,87.33
2022-08-03T01:47:00.927Z,87.92
2022-08-03T01:49:32.057Z,88.20
2022-08-03T01:52:05.399Z,88.93
2022-08-03T01:54:36.788Z,89.40
2022-08-03T01:57:05.047Z,89.04
2022-08-03T01:59:36.434Z,89.06
2022-08-03T02:02:15.623Z,89.98
2022-08-03T02:04:55.808Z,89.95
2022-08-03T02:07:24.957Z,89.73
2022-08-03T02:09:54.368Z,90.41
2022-08-03T02:12:24.331Z,90.77
2022-08-03T02:14:52.840Z,90.90
2022-08-03T02:17:38.974Z,89.53
2022-08-03T02:20:11.178Z,89.66
2022-08-03T02:22:42.638Z,90.50
2022-08-03T02:25:11.941Z,90.15
2022-08-03T02:27:49.135Z,91.35
2022-08-03T02:30:16.951Z,90.97
2022-08-03T02:32:51.652Z,91.26
2022-08-03T02:35:23.110Z,90.96
2022-08-03T02:37:58.657Z,90.91
2022-08-03T02:40:28.298Z,90.56
2022-08-03T02:42:59.624Z,90.62
2022-08-03T02:45:27.882Z,91.35
2022-08-03T02:48:00.226Z,92.40
2022-08-03T02:50:30.472Z,91.89
2022-08-03T02:53:00.222Z,91.84
2022-08-03T02:55:29.700Z,91.27
2022-08-03T02:58:01.305Z,91.31
2022-08-03T03:00:31.951Z,91.97
2022-08-03T03:03:01.590Z,91.21
2022-08-03T03:05:54.711Z,91.55
2022-08-03T03:08:26.761Z,91.80
2022-08-03T03:10:58.294Z,92.25
2022-08-03T03:13:28.370Z,92.60
2022-08-03T03:15:57.893Z,93.11
2022-08-03T03:18:27.686Z,93.06
2022-08-03T03:20:56.440Z,92.62
2022-08-03T03:23:25.433Z,92.31
2022-08-03T03:25:54.776Z,91.99
2022-08-03T03:28:24.230Z,91.62
2022-08-03T03:30:53.310Z,90.75
2022-08-03T03:33:22.243Z,89.79
2022-08-03T03:35:51.779Z,89.45
2022-08-03T03:38:20.161Z,88.72
2022-08-03T03:40:47.872Z,88.30
2022-08-03T03:43:15.503Z,87.60
2022-08-03T03:45:43.337Z,87.63
2022-08-03T03:48:10.876Z,86.55
2022-08-03T03:50:42.063Z,87.20
2022-08-03T03:53:11.391Z,87.06
2022-08-03T03:56:01.529Z,87.13
2022-08-03T03:58:27.867Z,86.46
2022-08-03T04:00:55.118Z,86.04
2022-08-03T04:03:22.434Z,85.25
2022-08-03T04:06:08.952Z,84.42
2022-08-03T04:08:54.964Z,83.32
2022-08-03T04:11:31.831Z,81.71
2022-08-03T04:14:02.557Z,82.15
2022-08-03T04:16:34.489Z,81.66
2022-08-03T04:19:05.473Z,81.19
2022-08-03T04:21:35.710Z,80.14
2022-08-03T04:24:06.129Z,79.01
2022-08-03T04:26:37.597Z,78.88
2022-08-03T04:29:08.075Z,77.61
2022-08-03T04:31:36.891Z,77.28
2022-08-03T04:34:05.017Z,76.51
2022-08-03T04:36:37.231Z,74.68
2022-08-03T04:39:13.678Z,73.21
2022-08-03T04:42:07.156Z,71.43
2022-08-03T04:44:31.765Z,69.48
2022-08-03T04:47:00.495Z,68.37
2022-08-03T04:49:30.173Z,67.52
2022-08-03T04:51:58.567Z,65.19
2022-08-03T04:54:25.804Z,64.62
2022-08-03T04:56:52.965Z,65.83
2022-08-03T04:59:20.429Z,64.87
2022-08-03T05:01:47.678Z,65.51
2022-08-03T05:04:15.300Z,63.75
2022-08-03T05:06:48.380Z,63.85
2022-08-03T05:09:49.723Z,65.22
2022-08-03T05:12:10.739Z,65.33
2022-08-03T05:14:38.965Z,62.83
2022-08-03T05:17:06.465Z,62.57
2022-08-03T05:19:33.997Z,61.45
2022-08-03T05:22:01.601Z,60.86
2022-08-03T05:24:28.851Z,59.58
2022-08-03T05:26:56.281Z,58.27
2022-08-03T05:29:23.615Z,58.72
2022-08-03T05:31:50.833Z,57.43
2022-08-03T05:34:18.235Z,56.14
2022-08-03T05:36:45.416Z,55.35
2022-08-03T05:39:12.642Z,52.31
2022-08-03T05:41:40.498Z,52.89
2022-08-03T05:44:07.708Z,52.02
2022-08-03T05:46:34.900Z,50.92
2022-08-03T05:49:02.400Z,46.29
2022-08-03T05:51:29.746Z,44.40
2022-08-03T05:53:56.928Z,42.70
2022-08-03T05:56:25.348Z,41.88
2022-08-03T05:58:53.235Z,40.81
2022-08-03T06:01:24.293Z,40.80
2022-08-03T06:03:52.325Z,36.58
2022-08-03T06:06:21.969Z,32.97
2022-08-03T06:08:49.217Z,30.30
2022-08-03T06:11:16.901Z,26.35
2022-08-03T06:13:44.769Z,24.59
2022-08-03T06:16:11.973Z,22.38
2022-08-03T06:18:40.599Z,22.43
2022-08-03T06:21:14.540Z,20.15
2022-08-03T06:23:52.956Z,18.86
2022-08-03T06:26:23.573Z,17.92
2022-08-03T06:28:52.953Z,18.26
2022-08-03T06:31:22.915Z,19.68
2022-08-03T06:34:33.442Z,18.96
2022-08-03T06:36:37.725Z,18.18
2022-08-03T06:39:05.333Z,16.85
2022-08-03T06:41:38.199Z,16.40
2022-08-03T06:44:12.883Z,15.83
2022-08-03T06:46:40.611Z,15.83
2022-08-03T06:49:08.262Z,15.33
2022-08-03T06:52:05.505Z,15.33
2022-08-03T06:54:24.518Z,14.92
2022-08-03T06:56:52.114Z,14.73
2022-08-03T07:00:10.828Z,14.45
2022-08-03T07:02:06.727Z,14.32
2022-08-03T07:04:34.056Z,100.00
2022-08-03T07:09:28.656Z,13.07
2022-08-03T07:11:57.177Z,13.13
2022-08-03T07:14:24.511Z,13.01
2022-08-03T07:16:51.887Z,11.11
2022-08-03T07:19:19.090Z,12.47
2022-08-03T07:21:47.330Z,13.18
2022-08-03T07:24:15.075Z,13.11
2022-08-03T07:26:42.354Z,12.44
2022-08-03T07:29:15.262Z,12.13
2022-08-03T07:31:43.081Z,10.93
2022-08-03T07:34:10.391Z,11.27
2022-08-03T07:36:37.689Z,10.94
2022-08-03T07:39:16.020Z,10.90
2022-08-03T07:41:46.005Z,10.31
2022-08-03T07:44:13.785Z,11.45
2022-08-03T07:46:40.980Z,10.72
2022-08-03T07:49:08.342Z,10.86
2022-08-03T07:51:35.903Z,11.03
2022-08-03T07:54:03.329Z,11.06
2022-08-03T07:56:30.831Z,11.65
2022-08-03T07:58:58.366Z,11.01
2022-08-03T08:01:25.606Z,11.42
2022-08-03T08:03:53.705Z,13.00
2022-08-03T08:06:22.078Z,17.44
2022-08-03T08:08:49.293Z,17.81
2022-08-03T08:11:16.497Z,18.63
2022-08-03T08:13:43.871Z,17.60
2022-08-03T08:16:11.033Z,18.12
2022-08-03T08:18:38.209Z,25.47
2022-08-03T08:21:05.620Z,27.88
2022-08-03T08:23:41.874Z,23.40
2022-08-03T08:26:11.097Z,22.09
2022-08-03T08:28:38.383Z,20.88
2022-08-03T08:31:05.621Z,18.18
2022-08-03T08:34:02.498Z,17.69
2022-08-03T08:36:22.002Z,17.29
2022-08-03T08:38:49.483Z,16.43
2022-08-03T08:41:17.074Z,15.70
2022-08-03T08:43:44.475Z,19.04
2022-08-03T08:46:13.291Z,18.24
2022-08-03T08:48:52.857Z,18.32
2022-08-03T08:51:22.242Z,22.35
2022-08-03T08:53:53.961Z,20.24
2022-08-03T08:56:25.513Z,22.08
2022-08-03T08:58:58.127Z,24.09
2022-08-03T09:01:25.916Z,29.86
2022-08-03T09:03:54.382Z,26.22
2022-08-03T09:06:23.146Z,24.10
2022-08-03T09:08:50.715Z,27.96
2022-08-03T09:11:52.481Z,28.16
2022-08-03T09:14:11.460Z,26.05
2022-08-03T09:17:02.170Z,24.67
2022-08-03T09:19:31.050Z,30.34
2022-08-03T09:22:14.525Z,29.73
2022-08-03T09:25:22.722Z,29.80
2022-08-03T09:27:48.184Z,26.31
2022-08-03T09:30:33.767Z,23.42
2022-08-03T09:33:04.277Z,28.41
2022-08-03T09:38:28.354Z,22.67
2022-08-03T09:40:59.993Z,21.26
2022-08-03T09:43:28.522Z,21.41
2022-08-03T09:46:05.571Z,21.07
2022-08-03T09:48:37.308Z,21.06
2022-08-03T09:51:14.168Z,23.06
2022-08-03T09:53:59.429Z,23.13
2022-08-03T09:56:47.397Z,25.29
2022-08-03T09:59:26.233Z,26.07
2022-08-03T10:01:54.200Z,26.49
2022-08-03T10:04:22.474Z,25.81
2022-08-03T10:07:10.069Z,22.68
2022-08-03T10:09:38.142Z,22.87
2022-08-03T10:12:10.393Z,23.75
2022-08-03T10:14:45.842Z,23.67
2022-08-03T10:17:13.490Z,23.04
2022-08-03T10:19:44.224Z,23.28
2022-08-03T10:22:19.383Z,24.37
2022-08-03T10:24:59.451Z,25.14
2022-08-03T10:27:31.321Z,25.83
2022-08-03T10:30:04.851Z,24.22
2022-08-03T10:32:38.735Z,23.67
2022-08-03T10:35:20.237Z,23.25
2022-08-03T10:38:03.846Z,25.42
2022-08-03T10:40:48.658Z,25.27
2022-08-03T10:43:26.062Z,23.98
2022-08-03T10:45:54.100Z,23.18
2022-08-03T10:48:22.263Z,23.03
2022-08-03T10:50:50.712Z,22.41
2022-08-03T10:53:35.393Z,21.87
2022-08-03T10:56:46.611Z,22.46
2022-08-03T10:59:10.686Z,24.38
2022-08-03T11:01:58.634Z,25.07
2022-08-03T11:04:29.975Z,24.96
2022-08-03T11:07:26.959Z,24.78
2022-08-03T11:09:56.258Z,23.90
2022-08-03T11:12:27.861Z,24.46
2022-08-03T11:15:02.351Z,26.19
2022-08-03T11:17:30.022Z,26.54
2022-08-03T11:19:58.561Z,26.88
2022-08-03T11:22:46.312Z,24.90
2022-08-03T11:25:53.171Z,26.14
2022-08-03T11:28:28.677Z,27.44
2022-08-03T11:30:56.076Z,28.07
2022-08-03T11:33:31.187Z,28.88
2022-08-03T11:36:01.116Z,29.89
2022-08-03T11:38:28.574Z,29.31
2022-08-03T11:40:55.953Z,28.45
2022-08-03T11:43:30.652Z,29.64
2022-08-03T11:46:28.171Z,29.87
2022-08-03T11:49:09.999Z,31.47
2022-08-03T11:51:40.178Z,31.69
2022-08-03T11:54:07.991Z,32.62
2022-08-03T11:56:46.838Z,32.92
2022-08-03T11:59:20.506Z,32.68
2022-08-03T12:01:48.844Z,32.23
2022-08-03T12:04:16.570Z,32.48
2022-08-03T12:06:59.334Z,31.62
2022-08-03T12:09:26.928Z,32.39
2022-08-03T12:12:00.513Z,32.78
2022-08-03T12:14:50.296Z,32.90
2022-08-03T12:17:18.198Z,32.80
2022-08-03T12:19:45.901Z,33.30
2022-08-03T12:22:13.745Z,32.67
2022-08-03T12:24:46.689Z,33.31
2022-08-03T12:27:24.784Z,31.99
2022-08-03T12:29:58.451Z,31.15
2022-08-03T12:32:28.832Z,31.15
2022-08-03T12:35:01.891Z,29.74
2022-08-03T12:37:30.207Z,30.21
2022-08-03T12:40:07.894Z,30.21
2022-08-03T12:42:39.778Z,30.57
2022-08-03T12:45:28.988Z,30.68
2022-08-03T12:47:59.402Z,30.42
2022-08-03T12:50:33.836Z,29.91
2022-08-03T12:53:05.315Z,31.30
2022-08-03T12:56:04.728Z,31.42
2022-08-03T12:58:36.787Z,30.74
2022-08-03T13:01:10.025Z,31.36
2022-08-03T13:03:50.436Z,30.89
2022-08-03T13:06:26.576Z,31.18
2022-08-03T13:09:08.146Z,31.54
2022-08-03T13:11:57.793Z,31.73
2022-08-03T13:14:23.692Z,32.36
2022-08-03T13:16:51.148Z,31.46
2022-08-03T13:19:18.426Z,31.65
2022-08-03T13:22:01.303Z,30.58
2022-08-03T13:24:33.220Z,30.80
2022-08-03T13:28:02.627Z,30.55
2022-08-03T13:29:48.343Z,30.21
2022-08-03T13:32:15.798Z,30.12
2022-08-03T13:34:43.035Z,29.74
2022-08-03T13:37:12.142Z,29.91
2022-08-03T13:39:57.725Z,29.32
2022-08-03T13:42:29.701Z,30.26
2022-08-03T13:44:57.772Z,30.92
2022-08-03T13:47:25.117Z,30.37
2022-08-03T13:49:59.848Z,31.09
2022-08-03T13:52:28.455Z,30.95
2022-08-03T13:54:55.639Z,30.54
2022-08-03T13:58:11.398Z,30.56
2022-08-03T14:00:10.905Z,30.61
2022-08-03T14:02:38.409Z,30.13
2022-08-03T14:05:06.285Z,29.39
2022-08-03T14:07:34.116Z,29.80
2022-08-03T14:10:02.020Z,29.78
2022-08-03T14:12:29.375Z,28.79
2022-08-03T14:14:58.403Z,28.31
2022-08-03T14:17:37.478Z,31.08
2022-08-03T14:20:36.292Z,30.82
2022-08-03T14:23:03.331Z,29.11
2022-08-03T14:25:43.119Z,28.98
2022-08-03T14:28:11.851Z,29.87
2022-08-03T14:30:39.297Z,29.01
2022-08-03T14:33:06.471Z,28.74
2022-08-03T14:35:33.701Z,28.56
2022-08-03T14:38:01.053Z,28.68
2022-08-03T14:40:28.196Z,28.23
2022-08-03T14:42:55.547Z,27.36
2022-08-03T14:45:23.349Z,27.70
2022-08-03T14:50:30.923Z,27.53
2022-08-03T14:50:44.211Z,27.41
2022-08-03T14:53:14.230Z,27.20
2022-08-03T14:55:50.569Z,28.61
2022-08-03T14:58:20.911Z,29.15
2022-08-03T15:00:49.987Z,28.09
2022-08-03T15:03:20.521Z,28.00
2022-08-03T15:05:47.824Z,28.05
2022-08-03T15:08:15.396Z,28.38
2022-08-03T15:10:44.290Z,27.74
2022-08-03T15:13:13.508Z,28.59
2022-08-03T15:15:41.540Z,28.63
2022-08-03T15:18:09.177Z,28.62
2022-08-03T15:20:45.499Z,28.83
2022-08-03T15:23:15.505Z,28.44
2022-08-03T15:26:03.759Z,28.87
2022-08-03T15:28:32.610Z,28.61
2022-08-03T15:31:00.571Z,28.27
2022-08-03T15:33:28.327Z,27.76
2022-08-03T15:35:56.754Z,27.92
2022-08-03T15:38:25.791Z,28.05
2022-08-03T15:40:59.071Z,27.82
2022-08-03T15:43:26.641Z,27.89
2022-08-03T15:46:19.456Z,27.61
2022-08-03T15:48:41.512Z,27.78
2022-08-03T15:51:09.224Z,28.75
2022-08-03T15:53:37.589Z,28.77
2022-08-03T15:56:11.447Z,28.31
2022-08-03T15:59:11.424Z,28.95
2022-08-03T16:01:29.083Z,29.42
2022-08-03T16:03:56.393Z,29.14
2022-08-03T16:06:29.521Z,29.36
2022-08-03T16:09:05.421Z,29.42
2022-08-03T16:11:33.274Z,29.25
2022-08-03T16:14:13.402Z,30.77
2022-08-03T16:16:47.978Z,29.91
2022-08-03T16:19:15.275Z,29.93
2022-08-03T16:21:48.526Z,29.68
2022-08-03T16:24:19.868Z,29.91
2022-08-03T16:26:55.939Z,30.38
2022-08-03T16:29:24.048Z,30.75
2022-08-03T16:31:52.552Z,30.02
2022-08-03T16:34:21.177Z,30.59
2022-08-03T16:36:48.738Z,31.05
2022-08-03T16:39:16.078Z,30.73
2022-08-03T16:41:53.600Z,30.59
2022-08-03T16:44:30.707Z,30.32
2022-08-03T16:47:00.047Z,31.25
2022-08-03T16:49:54.747Z,30.50
2022-08-03T16:52:16.731Z,30.63
2022-08-03T16:54:53.144Z,30.56
2022-08-03T16:57:55.872Z,30.90
2022-08-03T17:00:12.282Z,31.91
2022-08-03T17:03:04.409Z,31.47
2022-08-03T17:05:47.062Z,32.13
2022-08-03T17:08:15.887Z,31.44
2022-08-03T17:10:44.546Z,31.91
2022-08-03T17:13:21.839Z,32.17
2022-08-03T17:16:01.503Z,32.08
2022-08-03T17:18:35.285Z,31.38
2022-08-03T17:21:08.020Z,32.73
2022-08-03T17:23:37.908Z,33.19
2022-08-03T17:26:12.546Z,33.72
2022-08-03T17:28:50.186Z,42.09
2022-08-03T17:31:31.546Z,45.69
2022-08-03T17:34:04.554Z,48.04
2022-08-03T17:37:02.523Z,50.93
2022-08-03T17:39:41.668Z,51.56
2022-08-03T17:42:30.678Z,52.18
2022-08-03T17:45:02.577Z,53.90
2022-08-03T17:47:42.389Z,56.76
2022-08-03T17:50:24.440Z,57.95
2022-08-03T17:53:07.167Z,57.42
2022-08-03T17:55:56.320Z,58.15
2022-08-03T17:58:52.859Z,58.56
2022-08-03T18:02:01.789Z,60.29
2022-08-03T18:04:33.089Z,60.92
2022-08-03T18:07:11.297Z,61.66
2022-08-03T18:10:05.945Z,62.89
2022-08-03T18:12:51.810Z,63.39
2022-08-03T18:15:26.944Z,63.35
2022-08-03T18:18:02.967Z,65.25
2022-08-03T18:20:41.711Z,64.90
2022-08-03T18:23:24.676Z,65.69
2022-08-03T18:26:04.930Z,65.86
2022-08-03T18:28:34.928Z,65.95
2022-08-03T18:31:05.817Z,66.21
2022-08-03T18:34:16.980Z,67.90
2022-08-03T18:36:30.062Z,68.51
2022-08-03T18:39:00.213Z,69.02
2022-08-03T18:41:32.303Z,70.18
2022-08-03T18:44:08.748Z,70.13
2022-08-03T18:47:15.933Z,70.61
2022-08-03T18:50:20.929Z,71.23
2022-08-03T18:52:53.299Z,71.18
2022-08-03T18:55:33.484Z,72.03
2022-08-03T18:58:17.592Z,72.58
2022-08-03T19:00:54.598Z,72.69
2022-08-03T19:03:42.876Z,72.31
2022-08-03T19:06:20.041Z,72.97
2022-08-03T19:09:00.545Z,73.29
2022-08-03T19:12:14.387Z,76.01
2022-08-03T19:14:35.670Z,78.65
2022-08-03T19:17:11.181Z,79.83
2022-08-03T19:19:44.506Z,80.04
2022-08-03T19:22:16.096Z,80.16
2022-08-03T19:24:45.982Z,81.74
2022-08-03T19:27:15.878Z,78.73
2022-08-03T19:29:59.107Z,79.05
2022-08-03T19:32:30.163Z,80.30
2022-08-03T19:34:59.403Z,79.76
2022-08-03T19:37:38.379Z,78.76
2022-08-03T19:40:10.336Z,79.81
2022-08-03T19:42:42.997Z,78.31
2022-08-03T19:45:17.125Z,80.09
2022-08-03T19:48:09.831Z,81.12
2022-08-03T19:53:35.166Z,82.42
2022-08-03T19:56:07.043Z,83.27
2022-08-03T19:58:35.703Z,84.66
2022-08-03T20:01:19.657Z,85.26
2022-08-03T20:03:50.616Z,84.85
2022-08-03T20:06:21.291Z,81.51
2022-08-03T20:08:51.702Z,78.42
2022-08-03T20:11:20.804Z,77.23
2022-08-03T20:13:58.040Z,77.85
2022-08-03T20:16:26.227Z,71.44
2022-08-03T20:18:53.522Z,69.73
2022-08-03T20:21:24.996Z,68.26
2022-08-03T20:24:02.909Z,66.49
2022-08-03T20:26:53.286Z,66.32
2022-08-03T20:30:06.355Z,64.69
2022-08-03T20:32:24.412Z,65.21
2022-08-03T20:34:53.001Z,60.40
2022-08-03T20:37:20.547Z,60.60
2022-08-03T20:42:36.082Z,60.12
2022-08-03T20:45:06.216Z,59.82
2022-08-03T20:47:50.660Z,59.32
2022-08-03T20:50:19.183Z,59.33
2022-08-03T20:52:50.591Z,58.16
2022-08-03T20:55:20.242Z,57.33
2022-08-03T20:58:07.067Z,56.55
2022-08-03T21:00:34.321Z,56.49
2022-08-03T21:03:01.582Z,56.63
2022-08-03T21:05:48.267Z,55.99
2022-08-03T21:08:21.088Z,56.12
2022-08-03T21:10:49.346Z,56.02
2022-08-03T21:13:03.088Z,81.40
2022-08-03T21:13:07.251Z,60.74
2022-08-03T21:13:24.706Z,55.68
2022-08-03T21:16:11.962Z,55.24
2022-08-03T21:18:51.454Z,55.11
2022-08-03T21:21:23.157Z,54.35
2022-08-03T21:23:53.461Z,55.14
2022-08-03T21:26:24.661Z,54.36
2022-08-03T21:28:54.703Z,54.26
2022-08-03T21:31:25.237Z,54.56
2022-08-03T21:33:57.324Z,54.64
2022-08-03T21:36:27.888Z,54.50
2022-08-03T21:38:57.442Z,53.28
2022-08-03T21:41:31.292Z,52.92
2022-08-03T21:43:59.723Z,53.23
2022-08-03T21:46:32.295Z,52.81
2022-08-03T21:50:04.096Z,52.67
2022-08-03T21:51:52.247Z,52.83
2022-08-03T21:54:20.880Z,53.29
2022-08-03T21:56:51.037Z,52.52
2022-08-03T21:59:20.005Z,52.71
2022-08-03T22:01:49.218Z,53.00
2022-08-03T22:04:53.313Z,53.35
2022-08-03T22:07:08.598Z,53.10
2022-08-03T22:09:36.591Z,53.08
2022-08-03T22:12:04.337Z,53.16
2022-08-03T22:14:33.268Z,52.96
2022-08-03T22:17:03.390Z,53.33
2022-08-03T22:19:33.806Z,52.73
2022-08-03T22:22:06.102Z,53.06
2022-08-03T22:24:36.623Z,52.67
2022-08-03T22:27:23.312Z,52.99
2022-08-03T22:29:53.153Z,53.17
2022-08-03T22:32:21.168Z,53.27
2022-08-03T22:34:49.529Z,52.88
2022-08-03T22:37:19.924Z,52.71
2022-08-03T22:39:49.715Z,52.91
2022-08-03T22:42:19.333Z,53.13
2022-08-03T22:44:50.033Z,53.20
2022-08-03T22:47:22.847Z,53.17
2022-08-03T22:50:32.125Z,52.93
2022-08-03T22:52:42.473Z,52.76
2022-08-03T22:55:24.548Z,52.68
2022-08-03T22:57:56.100Z,52.62
2022-08-03T23:00:24.901Z,52.70
2022-08-03T23:02:54.727Z,53.20
2022-08-03T23:06:00.280Z,53.05
2022-08-03T23:08:22.814Z,53.42
2022-08-03T23:10:51.386Z,53.19
2022-08-03T23:13:22.187Z,53.14
2022-08-03T23:15:57.432Z,53.23
2022-08-03T23:18:28.388Z,53.45
2022-08-03T23:21:00.855Z,53.03
2022-08-03T23:23:44.369Z,52.73
2022-08-03T23:26:13.530Z,53.32
2022-08-03T23:28:45.208Z,53.30
2022-08-03T23:31:14.562Z,53.04
2022-08-03T23:33:44.886Z,53.02
2022-08-03T23:36:30.123Z,53.19
2022-08-03T23:39:02.260Z,52.95
2022-08-03T23:41:30.922Z,53.36
2022-08-03T23:44:00.452Z,53.37
2022-08-03T23:46:30.511Z,53.33
2022-08-03T23:48:58.982Z,53.33
2022-08-03T23:51:45.040Z,53.16
2022-08-03T23:54:21.428Z,53.37
2022-08-03T23:57:04.045Z,53.51
2022-08-03T23:59:59.219Z,53.16
